createdAt,value
2023-01-25T00:00:01.542Z,6.87
2023-01-25T00:01:05.693Z,6.00
2023-01-25T00:02:02.214Z,6.13
2023-01-25T00:03:01.507Z,6.33
2023-01-25T00:04:01.478Z,6.43
2023-01-25T00:05:02.687Z,5.70
2023-01-25T00:06:01.741Z,7.33
2023-01-25T00:07:01.517Z,7.00
2023-01-25T00:08:01.457Z,6.37
2023-01-25T00:09:02.020Z,8.40
2023-01-25T00:10:01.447Z,7.20
2023-01-25T00:11:02.195Z,6.87
2023-01-25T00:12:01.597Z,8.03
2023-01-25T00:13:01.225Z,6.80
2023-01-25T00:14:01.413Z,5.83
2023-01-25T00:15:01.383Z,6.83
2023-01-25T00:16:01.322Z,10.90
2023-01-25T00:17:01.122Z,8.93
2023-01-25T00:18:01.119Z,7.10
2023-01-25T00:19:01.144Z,7.27
2023-01-25T00:20:01.112Z,7.03
2023-01-25T00:21:12.140Z,6.63
2023-01-25T00:22:01.585Z,8.53
2023-01-25T00:23:01.688Z,6.43
2023-01-25T00:24:01.684Z,9.07
2023-01-25T00:25:01.430Z,8.00
2023-01-25T00:26:01.161Z,6.83
2023-01-25T00:27:02.370Z,5.83
2023-01-25T00:28:01.318Z,7.10
2023-01-25T00:29:02.982Z,7.20
2023-01-25T00:30:01.093Z,7.07
2023-01-25T00:31:02.814Z,6.40
2023-01-25T00:32:17.224Z,7.70
2023-01-25T00:33:15.631Z,8.03
2023-01-25T00:34:15.712Z,6.23
2023-01-25T00:35:01.440Z,6.93
2023-01-25T00:36:01.310Z,7.43
2023-01-25T00:37:10.075Z,9.00
2023-01-25T00:38:13.389Z,6.90
2023-01-25T00:39:01.173Z,7.13
2023-01-25T00:40:01.665Z,6.77
2023-01-25T00:41:01.425Z,7.87
2023-01-25T00:42:01.820Z,7.67
2023-01-25T00:43:01.315Z,7.70
2023-01-25T00:44:01.104Z,8.33
2023-01-25T00:45:01.546Z,7.07
2023-01-25T00:46:01.592Z,7.27
2023-01-25T00:47:01.354Z,8.23
2023-01-25T00:48:01.096Z,7.63
2023-01-25T00:49:01.649Z,7.00
2023-01-25T00:50:01.407Z,7.43
2023-01-25T00:51:01.825Z,7.23
2023-01-25T00:52:01.706Z,8.07
2023-01-25T00:53:01.132Z,6.70
2023-01-25T00:54:01.388Z,7.23
2023-01-25T00:55:01.703Z,6.93
2023-01-25T00:56:01.138Z,7.77
2023-01-25T00:57:01.933Z,7.70
2023-01-25T00:58:01.446Z,6.87
2023-01-25T00:59:01.067Z,6.77
2023-01-25T01:00:01.507Z,6.30
2023-01-25T01:01:01.628Z,7.07
2023-01-25T01:02:01.577Z,7.50
2023-01-25T01:03:01.468Z,8.20
2023-01-25T01:04:01.120Z,7.50
2023-01-25T01:05:01.695Z,6.70
2023-01-25T01:06:03.302Z,7.93
2023-01-25T01:07:01.458Z,7.23
2023-01-25T01:08:01.743Z,8.40
2023-01-25T01:09:02.516Z,6.97
2023-01-25T01:10:01.505Z,6.73
2023-01-25T01:11:03.260Z,7.13
2023-01-25T01:12:01.105Z,8.23
2023-01-25T01:13:01.327Z,6.33
2023-01-25T01:14:01.532Z,6.13
2023-01-25T01:15:01.506Z,7.47
2023-01-25T01:16:04.036Z,7.47
2023-01-25T01:17:02.266Z,6.00
2023-01-25T01:18:01.136Z,7.00
2023-01-25T01:19:01.744Z,6.27
2023-01-25T01:20:01.456Z,8.87
2023-01-25T01:21:01.725Z,6.93
2023-01-25T01:22:01.479Z,7.93
2023-01-25T01:23:01.093Z,7.37
2023-01-25T01:24:01.442Z,6.57
2023-01-25T01:25:01.141Z,7.17
2023-01-25T01:26:02.894Z,8.23
2023-01-25T01:27:01.575Z,7.53
2023-01-25T01:28:01.195Z,6.50
2023-01-25T01:29:01.150Z,8.63
2023-01-25T01:30:01.675Z,8.27
2023-01-25T01:31:03.026Z,8.90
2023-01-25T01:32:01.860Z,8.63
2023-01-25T01:33:02.064Z,6.10
2023-01-25T01:34:01.102Z,7.03
2023-01-25T01:35:01.257Z,7.73
2023-01-25T01:36:07.951Z,7.90
2023-01-25T01:37:01.436Z,8.73
2023-01-25T01:38:02.146Z,9.40
2023-01-25T01:39:01.461Z,8.00
2023-01-25T01:40:01.426Z,8.83
2023-01-25T01:41:01.150Z,8.63
2023-01-25T01:42:01.978Z,9.90
2023-01-25T01:43:03.574Z,7.50
2023-01-25T01:44:01.291Z,6.80
2023-01-25T01:45:01.118Z,7.17
2023-01-25T01:46:03.948Z,7.30
2023-01-25T01:47:01.367Z,6.93
2023-01-25T01:48:01.103Z,8.67
2023-01-25T01:49:05.172Z,7.57
2023-01-25T01:50:05.872Z,6.57
2023-01-25T01:51:08.036Z,6.40
2023-01-25T01:52:06.863Z,8.07
2023-01-25T01:53:01.180Z,8.23
2023-01-25T01:54:05.499Z,8.03
2023-01-25T01:55:05.236Z,8.13
2023-01-25T01:56:07.614Z,8.13
2023-01-25T01:57:06.828Z,6.93
2023-01-25T01:58:01.576Z,7.57
2023-01-25T01:59:04.526Z,7.93
2023-01-25T02:00:05.539Z,8.97
2023-01-25T02:01:01.255Z,8.63
2023-01-25T02:02:02.693Z,7.23
2023-01-25T02:03:01.429Z,6.10
2023-01-25T02:04:05.346Z,7.97
2023-01-25T02:05:06.532Z,9.00
2023-01-25T02:06:08.187Z,10.90
2023-01-25T02:07:07.941Z,7.67
2023-01-25T02:08:04.668Z,8.10
2023-01-25T02:09:01.161Z,7.67
2023-01-25T02:10:03.002Z,7.50
2023-01-25T02:11:03.433Z,8.60
2023-01-25T02:12:02.560Z,7.70
2023-01-25T02:13:01.325Z,8.57
2023-01-25T02:14:01.930Z,8.13
2023-01-25T02:15:01.109Z,7.57
2023-01-25T02:16:02.325Z,8.10
2023-01-25T02:17:03.317Z,7.97
2023-01-25T02:18:01.778Z,7.77
2023-01-25T02:19:01.635Z,8.67
2023-01-25T02:20:14.257Z,7.67
2023-01-25T02:21:02.246Z,9.50
2023-01-25T02:22:07.980Z,10.00
2023-01-25T02:23:12.320Z,8.17
2023-01-25T02:24:11.038Z,11.90
2023-01-25T02:25:03.875Z,7.50
2023-01-25T02:26:04.770Z,8.63
2023-01-25T02:27:02.040Z,8.77
2023-01-25T02:28:09.024Z,9.17
2023-01-25T02:29:04.371Z,9.83
2023-01-25T02:30:01.691Z,9.20
2023-01-25T02:31:01.864Z,7.07
2023-01-25T02:32:03.747Z,8.40
2023-01-25T02:33:02.184Z,8.60
2023-01-25T02:34:01.597Z,8.70
2023-01-25T02:35:01.457Z,8.97
2023-01-25T02:36:16.799Z,9.73
2023-01-25T02:37:02.476Z,7.83
2023-01-25T02:38:01.616Z,8.63
2023-01-25T02:39:05.625Z,7.63
2023-01-25T02:40:01.188Z,8.47
2023-01-25T02:41:07.324Z,8.80
2023-01-25T02:42:02.129Z,8.90
2023-01-25T02:43:01.250Z,7.30
2023-01-25T02:44:04.698Z,9.67
2023-01-25T02:45:02.453Z,7.77
2023-01-25T02:46:09.325Z,6.23
2023-01-25T02:47:01.442Z,8.47
2023-01-25T02:48:01.458Z,7.23
2023-01-25T02:49:02.758Z,7.30
2023-01-25T02:50:01.526Z,8.10
2023-01-25T02:51:01.764Z,10.50
2023-01-25T02:52:01.716Z,6.53
2023-01-25T02:53:01.219Z,9.17
2023-01-25T02:54:02.949Z,6.20
2023-01-25T02:55:01.841Z,9.57
2023-01-25T02:56:01.284Z,10.87
2023-01-25T02:57:01.602Z,7.37
2023-01-25T02:58:01.901Z,7.73
2023-01-25T02:59:01.110Z,10.03
2023-01-25T03:00:01.135Z,8.17
2023-01-25T03:01:01.796Z,10.40
2023-01-25T03:02:01.580Z,7.53
2023-01-25T03:03:01.822Z,7.13
2023-01-25T03:04:01.098Z,7.97
2023-01-25T03:05:01.235Z,7.37
2023-01-25T03:06:01.950Z,7.80
2023-01-25T03:07:01.632Z,10.13
2023-01-25T03:08:01.483Z,9.00
2023-01-25T03:09:02.843Z,7.20
2023-01-25T03:10:01.086Z,9.73
2023-01-25T03:11:04.142Z,7.33
2023-01-25T03:12:01.115Z,8.33
2023-01-25T03:13:01.664Z,10.07
2023-01-25T03:14:02.291Z,9.33
2023-01-25T03:15:01.518Z,7.30
2023-01-25T03:16:04.520Z,6.83
2023-01-25T03:17:02.145Z,7.23
2023-01-25T03:18:03.506Z,7.40
2023-01-25T03:19:01.511Z,5.97
2023-01-25T03:20:01.122Z,7.00
2023-01-25T03:21:05.626Z,7.43
2023-01-25T03:22:02.086Z,9.87
2023-01-25T03:23:02.111Z,9.77
2023-01-25T03:24:02.600Z,7.63
2023-01-25T03:25:01.093Z,8.13
2023-01-25T03:26:06.914Z,6.83
2023-01-25T03:27:01.081Z,6.27
2023-01-25T03:28:01.781Z,7.40
2023-01-25T03:29:01.475Z,7.30
2023-01-25T03:30:01.499Z,8.73
2023-01-25T03:31:01.683Z,7.77
2023-01-25T03:32:01.277Z,8.07
2023-01-25T03:33:01.295Z,6.30
2023-01-25T03:34:01.228Z,7.03
2023-01-25T03:35:01.345Z,7.93
2023-01-25T03:36:02.059Z,8.90
2023-01-25T03:37:01.845Z,6.60
2023-01-25T03:38:01.131Z,6.47
2023-01-25T03:39:01.224Z,7.37
2023-01-25T03:40:01.446Z,10.00
2023-01-25T03:41:01.862Z,7.70
2023-01-25T03:42:01.310Z,10.10
2023-01-25T03:43:01.691Z,7.80
2023-01-25T03:44:01.785Z,8.80
2023-01-25T03:45:01.500Z,7.70
2023-01-25T03:46:02.314Z,8.37
2023-01-25T03:47:01.805Z,7.17
2023-01-25T03:48:01.189Z,11.27
2023-01-25T03:49:01.175Z,10.13
2023-01-25T03:50:01.348Z,7.50
2023-01-25T03:51:01.492Z,8.77
2023-01-25T03:52:01.426Z,7.97
2023-01-25T03:53:01.895Z,8.20
2023-01-25T03:54:01.593Z,6.67
2023-01-25T03:55:01.577Z,10.57
2023-01-25T03:56:03.290Z,8.17
2023-01-25T03:57:01.068Z,6.67
2023-01-25T03:58:01.963Z,7.77
2023-01-25T03:59:01.514Z,9.00
2023-01-25T04:00:01.535Z,7.00
2023-01-25T04:01:02.548Z,6.50
2023-01-25T04:02:01.173Z,6.77
2023-01-25T04:03:01.614Z,7.23
2023-01-25T04:04:01.611Z,8.83
2023-01-25T04:05:01.449Z,8.27
2023-01-25T04:06:02.542Z,7.43
2023-01-25T04:07:01.085Z,7.80
2023-01-25T04:08:01.797Z,9.40
2023-01-25T04:09:01.310Z,6.10
2023-01-25T04:10:01.136Z,6.93
2023-01-25T04:11:04.339Z,7.83
2023-01-25T04:12:01.387Z,10.17
2023-01-25T04:13:01.473Z,9.90
2023-01-25T04:14:01.500Z,9.70
2023-01-25T04:15:02.166Z,6.57
2023-01-25T04:16:02.381Z,7.93
2023-01-25T04:17:01.176Z,7.90
2023-01-25T04:18:01.730Z,7.20
2023-01-25T04:19:01.706Z,8.87
2023-01-25T04:20:01.099Z,8.47
2023-01-25T04:21:01.093Z,10.40
2023-01-25T04:22:01.444Z,8.60
2023-01-25T04:23:01.980Z,10.10
2023-01-25T04:24:01.618Z,9.90
2023-01-25T04:25:01.436Z,7.63
2023-01-25T04:26:03.658Z,7.70
2023-01-25T04:27:01.107Z,6.33
2023-01-25T04:28:01.468Z,7.90
2023-01-25T04:29:01.481Z,7.80
2023-01-25T04:30:01.460Z,6.93
2023-01-25T04:31:02.577Z,8.00
2023-01-25T04:32:01.487Z,9.60
2023-01-25T04:33:04.479Z,8.57
2023-01-25T04:34:01.263Z,8.20
2023-01-25T04:35:01.336Z,7.13
2023-01-25T04:36:01.677Z,9.80
2023-01-25T04:37:01.633Z,9.67
2023-01-25T04:38:01.453Z,7.03
2023-01-25T04:39:01.488Z,9.20
2023-01-25T04:40:01.089Z,7.63
2023-01-25T04:41:01.949Z,7.90
2023-01-25T04:42:01.454Z,7.90
2023-01-25T04:43:01.791Z,7.23
2023-01-25T04:44:01.083Z,7.90
2023-01-25T04:45:01.279Z,6.63
2023-01-25T04:46:01.976Z,8.93
2023-01-25T04:47:01.449Z,8.37
2023-01-25T04:48:03.131Z,7.37
2023-01-25T04:49:01.598Z,8.83
2023-01-25T04:50:01.217Z,8.07
2023-01-25T04:51:01.472Z,8.00
2023-01-25T04:52:01.632Z,8.23
2023-01-25T04:53:01.099Z,6.50
2023-01-25T04:54:01.227Z,9.53
2023-01-25T04:55:03.215Z,7.53
2023-01-25T04:56:01.602Z,7.33
2023-01-25T04:57:01.924Z,9.57
2023-01-25T04:58:02.456Z,7.60
2023-01-25T04:59:01.437Z,7.80
2023-01-25T05:00:01.441Z,7.33
2023-01-25T05:01:02.550Z,8.43
2023-01-25T05:02:01.140Z,10.20
2023-01-25T05:03:02.157Z,10.17
2023-01-25T05:04:01.510Z,7.20
2023-01-25T05:05:01.284Z,9.50
2023-01-25T05:06:01.103Z,9.47
2023-01-25T05:07:01.553Z,7.60
2023-01-25T05:08:01.065Z,8.43
2023-01-25T05:09:01.470Z,9.07
2023-01-25T05:10:01.662Z,7.93
2023-01-25T05:11:01.785Z,8.17
2023-01-25T05:12:01.169Z,6.73
2023-01-25T05:13:01.081Z,6.70
2023-01-25T05:14:01.704Z,7.43
2023-01-25T05:15:01.298Z,10.30
2023-01-25T05:16:01.136Z,11.70
2023-01-25T05:17:01.131Z,8.13
2023-01-25T05:18:01.919Z,7.90
2023-01-25T05:19:01.235Z,6.97
2023-01-25T05:20:01.157Z,7.33
2023-01-25T05:21:01.681Z,7.77
2023-01-25T05:22:02.715Z,8.23
2023-01-25T05:23:01.674Z,7.20
2023-01-25T05:24:01.597Z,6.77
2023-01-25T05:25:01.079Z,9.10
2023-01-25T05:26:01.100Z,7.63
2023-01-25T05:27:02.314Z,8.37
2023-01-25T05:28:04.162Z,7.63
2023-01-25T05:29:01.333Z,9.47
2023-01-25T05:30:01.519Z,8.63
2023-01-25T05:31:03.880Z,8.43
2023-01-25T05:32:04.593Z,8.07
2023-01-25T05:33:01.657Z,7.10
2023-01-25T05:34:01.151Z,7.43
2023-01-25T05:35:01.417Z,8.80
2023-01-25T05:36:01.447Z,5.23
2023-01-25T05:37:02.395Z,7.37
2023-01-25T05:38:01.096Z,7.60
2023-01-25T05:39:01.447Z,7.00
2023-01-25T05:40:01.234Z,9.03
2023-01-25T05:41:01.427Z,8.33
2023-01-25T05:42:01.481Z,6.70
2023-01-25T05:43:01.103Z,7.17
2023-01-25T05:44:02.631Z,6.70
2023-01-25T05:45:01.094Z,7.60
2023-01-25T05:46:01.148Z,9.73
2023-01-25T05:47:01.694Z,6.80
2023-01-25T05:48:01.432Z,8.50
2023-01-25T05:49:01.165Z,8.23
2023-01-25T05:50:01.145Z,7.60
2023-01-25T05:51:01.323Z,8.70
2023-01-25T05:52:01.074Z,10.50
2023-01-25T05:53:01.110Z,9.40
2023-01-25T05:54:02.067Z,9.97
2023-01-25T05:55:01.082Z,9.50
2023-01-25T05:56:03.976Z,7.50
2023-01-25T05:57:01.439Z,11.17
2023-01-25T05:58:01.467Z,9.67
2023-01-25T05:59:01.223Z,8.80
2023-01-25T06:00:01.280Z,8.33
2023-01-25T06:01:02.779Z,7.77
2023-01-25T06:02:01.355Z,8.93
2023-01-25T06:03:02.021Z,7.23
2023-01-25T06:04:01.104Z,8.27
2023-01-25T06:05:01.091Z,8.60
2023-01-25T06:06:01.804Z,8.17
2023-01-25T06:07:01.083Z,9.03
2023-01-25T06:08:01.500Z,10.20
2023-01-25T06:09:01.373Z,8.57
2023-01-25T06:10:01.193Z,9.50
2023-01-25T06:11:07.004Z,8.27
2023-01-25T06:12:01.120Z,8.13
2023-01-25T06:13:01.335Z,7.40
2023-01-25T06:14:01.096Z,8.90
2023-01-25T06:15:01.475Z,6.17
2023-01-25T06:16:01.714Z,8.10
2023-01-25T06:17:01.124Z,9.10
2023-01-25T06:18:01.427Z,7.10
2023-01-25T06:19:01.267Z,8.57
2023-01-25T06:20:01.093Z,6.77
2023-01-25T06:21:02.839Z,7.67
2023-01-25T06:22:01.074Z,7.20
2023-01-25T06:23:01.087Z,9.77
2023-01-25T06:24:01.653Z,8.20
2023-01-25T06:25:02.161Z,9.00
2023-01-25T06:26:04.324Z,7.43
2023-01-25T06:27:01.099Z,7.20
2023-01-25T06:28:01.109Z,10.03
2023-01-25T06:29:01.153Z,10.03
2023-01-25T06:30:01.098Z,10.27
2023-01-25T06:31:05.932Z,8.13
2023-01-25T06:32:02.377Z,8.93
2023-01-25T06:33:01.643Z,7.90
2023-01-25T06:34:01.708Z,7.47
2023-01-25T06:35:02.410Z,7.33
2023-01-25T06:36:03.279Z,9.60
2023-01-25T06:37:01.100Z,10.13
2023-01-25T06:38:01.158Z,6.77
2023-01-25T06:39:01.715Z,7.93
2023-01-25T06:40:01.444Z,6.37
2023-01-25T06:41:02.204Z,7.43
2023-01-25T06:42:01.096Z,7.10
2023-01-25T06:43:06.393Z,8.87
2023-01-25T06:44:01.443Z,8.47
2023-01-25T06:45:01.477Z,8.50
2023-01-25T06:46:04.607Z,8.47
2023-01-25T06:47:01.092Z,7.43
2023-01-25T06:48:01.565Z,6.53
2023-01-25T06:49:01.133Z,8.20
2023-01-25T06:50:01.929Z,9.67
2023-01-25T06:51:04.735Z,10.30
2023-01-25T06:52:01.666Z,7.63
2023-01-25T06:53:01.425Z,9.87
2023-01-25T06:54:02.869Z,7.57
2023-01-25T06:55:01.464Z,6.40
2023-01-25T06:56:04.477Z,6.80
2023-01-25T06:57:01.921Z,9.20
2023-01-25T06:58:01.933Z,8.27
2023-01-25T06:59:01.084Z,8.63
2023-01-25T07:00:02.343Z,9.20
2023-01-25T07:01:04.375Z,8.00
2023-01-25T07:02:01.148Z,7.17
2023-01-25T07:03:01.148Z,9.23
2023-01-25T07:04:01.790Z,8.90
2023-01-25T07:05:01.130Z,7.17
2023-01-25T07:06:02.907Z,8.80
2023-01-25T07:07:01.443Z,6.70
2023-01-25T07:08:01.715Z,8.53
2023-01-25T07:09:01.946Z,8.07
2023-01-25T07:10:01.509Z,8.63
2023-01-25T07:11:02.748Z,7.70
2023-01-25T07:12:01.392Z,6.97
2023-01-25T07:13:01.103Z,8.50
2023-01-25T07:14:02.249Z,9.17
2023-01-25T07:15:01.120Z,8.80
2023-01-25T07:16:03.185Z,9.77
2023-01-25T07:17:03.751Z,7.30
2023-01-25T07:18:14.847Z,9.13
2023-01-25T07:19:01.413Z,7.10
2023-01-25T07:20:01.096Z,9.67
2023-01-25T07:21:03.879Z,9.17
2023-01-25T07:22:01.578Z,8.70
2023-01-25T07:23:02.238Z,7.07
2023-01-25T07:24:03.179Z,8.00
2023-01-25T07:25:01.099Z,8.93
2023-01-25T07:26:01.977Z,7.07
2023-01-25T07:27:01.070Z,8.87
2023-01-25T07:28:01.086Z,11.13
2023-01-25T07:29:01.143Z,9.00
2023-01-25T07:30:01.954Z,9.90
2023-01-25T07:31:04.629Z,9.33
2023-01-25T07:32:01.264Z,9.60
2023-01-25T07:33:01.406Z,8.43
2023-01-25T07:34:01.103Z,9.60
2023-01-25T07:35:01.097Z,10.63
2023-01-25T07:36:01.134Z,8.87
2023-01-25T07:37:01.095Z,7.70
2023-01-25T07:38:01.509Z,9.83
2023-01-25T07:39:01.074Z,9.33
2023-01-25T07:40:01.087Z,8.53
2023-01-25T07:41:02.129Z,9.47
2023-01-25T07:42:01.113Z,10.60
2023-01-25T07:43:01.702Z,10.97
2023-01-25T07:44:01.111Z,10.13
2023-01-25T07:45:01.457Z,8.73
2023-01-25T07:46:01.883Z,8.93
2023-01-25T07:47:01.088Z,5.80
2023-01-25T07:48:08.558Z,8.80
2023-01-25T07:49:01.443Z,8.70
2023-01-25T07:50:01.548Z,10.83
2023-01-25T07:51:02.690Z,7.87
2023-01-25T07:52:01.514Z,9.67
2023-01-25T07:53:01.082Z,9.00
2023-01-25T07:54:04.456Z,8.37
2023-01-25T07:55:01.119Z,10.73
2023-01-25T07:56:01.079Z,9.50
2023-01-25T07:57:01.093Z,8.73
2023-01-25T07:58:01.119Z,10.10
2023-01-25T07:59:01.836Z,7.20
2023-01-25T08:00:01.134Z,9.77
2023-01-25T08:01:08.509Z,9.27
2023-01-25T08:02:01.067Z,7.20
2023-01-25T08:03:01.666Z,9.13
2023-01-25T08:04:02.359Z,8.13
2023-01-25T08:05:01.446Z,9.40
2023-01-25T08:06:01.663Z,9.40
2023-01-25T08:07:01.079Z,9.13
2023-01-25T08:08:01.474Z,8.97
2023-01-25T08:09:03.511Z,7.50
2023-01-25T08:10:01.140Z,10.03
2023-01-25T08:11:08.191Z,9.20
2023-01-25T08:12:01.107Z,8.73
2023-01-25T08:13:01.082Z,7.87
2023-01-25T08:14:01.322Z,9.17
2023-01-25T08:15:02.061Z,7.83
2023-01-25T08:16:01.451Z,9.43
2023-01-25T08:17:01.450Z,7.20
2023-01-25T08:18:01.624Z,8.83
2023-01-25T08:19:02.687Z,7.83
2023-01-25T08:20:01.620Z,8.33
2023-01-25T08:21:01.125Z,7.10
2023-01-25T08:22:01.417Z,9.23
2023-01-25T08:23:01.118Z,7.43
2023-01-25T08:24:03.886Z,8.33
2023-01-25T08:25:01.544Z,7.80
2023-01-25T08:26:01.863Z,7.60
2023-01-25T08:27:01.104Z,8.10
2023-01-25T08:28:01.429Z,7.30
2023-01-25T08:29:02.747Z,7.93
2023-01-25T08:30:01.823Z,9.53
2023-01-25T08:31:06.288Z,7.70
2023-01-25T08:32:01.440Z,6.53
2023-01-25T08:33:01.316Z,7.40
2023-01-25T08:34:01.861Z,9.87
2023-01-25T08:35:01.085Z,6.87
2023-01-25T08:36:01.459Z,7.53
2023-01-25T08:37:01.802Z,8.83
2023-01-25T08:38:01.093Z,8.30
2023-01-25T08:39:04.292Z,8.80
2023-01-25T08:40:01.128Z,7.30
2023-01-25T08:41:05.323Z,5.60
2023-01-25T08:42:01.082Z,8.53
2023-01-25T08:43:01.842Z,9.70
2023-01-25T08:44:01.609Z,7.13
2023-01-25T08:45:01.101Z,6.20
2023-01-25T08:46:01.632Z,7.70
2023-01-25T08:47:01.675Z,6.57
2023-01-25T08:48:01.085Z,8.87
2023-01-25T08:49:02.627Z,9.43
2023-01-25T08:50:02.058Z,6.10
2023-01-25T08:51:02.151Z,8.30
2023-01-25T08:52:01.065Z,6.90
2023-01-25T08:53:01.086Z,6.50
2023-01-25T08:54:02.843Z,5.93
2023-01-25T08:55:01.124Z,6.70
2023-01-25T08:56:03.887Z,6.30
2023-01-25T08:57:01.485Z,7.80
2023-01-25T08:58:01.487Z,8.43
2023-01-25T08:59:01.529Z,7.43
2023-01-25T09:00:01.293Z,7.90
2023-01-25T09:01:02.912Z,8.83
2023-01-25T09:02:01.426Z,5.07
2023-01-25T09:03:01.070Z,6.20
2023-01-25T09:04:01.649Z,5.90
2023-01-25T09:05:01.119Z,8.60
2023-01-25T09:06:01.206Z,6.50
2023-01-25T09:07:01.106Z,7.07
2023-01-25T09:08:02.611Z,8.03
2023-01-25T09:09:01.284Z,5.03
2023-01-25T09:10:01.466Z,7.23
2023-01-25T09:11:02.316Z,4.83
2023-01-25T09:12:01.950Z,4.80
2023-01-25T09:13:01.650Z,6.30
2023-01-25T09:14:01.516Z,7.73
2023-01-25T09:15:01.885Z,5.00
2023-01-25T09:16:02.332Z,5.40
2023-01-25T09:17:01.085Z,4.03
2023-01-25T09:18:01.808Z,5.80
2023-01-25T09:19:03.652Z,4.30
2023-01-25T09:20:01.541Z,4.77
2023-01-25T09:21:06.408Z,6.33
2023-01-25T09:22:01.082Z,5.27
2023-01-25T09:23:01.132Z,5.57
2023-01-25T09:24:06.991Z,8.40
2023-01-25T09:25:01.572Z,6.77
2023-01-25T09:26:02.118Z,5.53
2023-01-25T09:27:01.082Z,4.93
2023-01-25T09:28:01.810Z,5.37
2023-01-25T09:29:01.097Z,4.03
2023-01-25T09:30:03.088Z,7.50
2023-01-25T09:31:20.452Z,5.13
2023-01-25T09:32:01.658Z,6.00
2023-01-25T09:33:01.613Z,3.87
2023-01-25T09:34:01.470Z,3.77
2023-01-25T09:35:01.545Z,4.10
2023-01-25T09:36:01.941Z,5.63
2023-01-25T09:37:01.110Z,5.83
2023-01-25T09:38:01.136Z,4.37
2023-01-25T09:39:01.448Z,4.63
2023-01-25T09:40:01.107Z,4.37
2023-01-25T09:41:11.752Z,5.10
2023-01-25T09:42:21.367Z,4.50
2023-01-25T09:43:12.068Z,6.07
2023-01-25T09:44:17.809Z,5.77
2023-01-25T09:45:14.348Z,6.20
2023-01-25T09:46:14.200Z,6.27
2023-01-25T09:47:08.704Z,5.00
2023-01-25T09:48:13.028Z,5.17
2023-01-25T09:49:13.129Z,7.27
2023-01-25T09:50:20.484Z,5.30
2023-01-25T09:51:20.379Z,5.13
2023-01-25T09:52:20.479Z,4.43
2023-01-25T09:53:20.166Z,7.10
2023-01-25T09:54:03.504Z,5.70
2023-01-25T09:55:02.093Z,5.83
2023-01-25T09:56:08.916Z,5.10
2023-01-25T09:57:01.687Z,6.20
2023-01-25T09:58:02.139Z,5.67
2023-01-25T09:59:06.526Z,4.40
2023-01-25T10:00:11.226Z,4.90
2023-01-25T10:01:15.677Z,4.63
2023-01-25T10:02:08.834Z,5.90
2023-01-25T10:03:11.126Z,4.00
2023-01-25T10:04:07.148Z,5.03
2023-01-25T10:05:07.733Z,5.27
2023-01-25T10:06:02.807Z,5.73
2023-01-25T10:07:15.361Z,3.47
2023-01-25T10:08:06.375Z,6.50
2023-01-25T10:09:10.394Z,4.37
2023-01-25T10:10:05.263Z,5.63
2023-01-25T10:11:11.251Z,5.17
2023-01-25T10:12:14.703Z,8.07
2023-01-25T10:13:02.010Z,6.27
2023-01-25T10:14:01.169Z,4.53
2023-01-25T10:15:02.083Z,5.10
2023-01-25T10:16:09.861Z,3.33
2023-01-25T10:17:08.711Z,6.13
2023-01-25T10:18:09.335Z,4.40
2023-01-25T10:19:16.228Z,5.80
2023-01-25T10:20:14.821Z,4.33
2023-01-25T10:21:07.279Z,4.33
2023-01-25T10:22:10.771Z,5.63
2023-01-25T10:23:20.495Z,5.13
2023-01-25T10:24:20.580Z,4.87
2023-01-25T10:25:20.488Z,6.03
2023-01-25T10:26:08.013Z,5.00
2023-01-25T10:27:09.940Z,5.47
2023-01-25T10:28:20.503Z,7.33
2023-01-25T10:29:10.072Z,6.07
2023-01-25T10:30:12.603Z,5.17
2023-01-25T10:31:04.101Z,5.53
2023-01-25T10:32:17.486Z,7.20
2023-01-25T10:33:11.137Z,5.03
2023-01-25T10:34:12.090Z,5.33
2023-01-25T10:35:22.886Z,5.10
2023-01-25T10:36:04.060Z,5.33
2023-01-25T10:37:09.694Z,5.17
2023-01-25T10:38:06.208Z,5.20
2023-01-25T10:39:01.087Z,6.20
2023-01-25T10:40:06.187Z,4.97
2023-01-25T10:41:06.774Z,6.60
2023-01-25T10:42:08.572Z,5.47
2023-01-25T10:43:07.088Z,4.87
2023-01-25T10:44:01.436Z,4.90
2023-01-25T10:45:01.082Z,5.13
2023-01-25T10:46:01.603Z,5.67
2023-01-25T10:47:12.191Z,5.53
2023-01-25T10:48:06.884Z,5.80
2023-01-25T10:49:19.692Z,4.60
2023-01-25T10:50:01.076Z,7.60
2023-01-25T10:51:01.325Z,5.27
2023-01-25T10:52:12.130Z,9.67
2023-01-25T10:53:01.086Z,8.30
2023-01-25T10:54:03.479Z,9.07
2023-01-25T10:55:13.961Z,9.80
2023-01-25T10:56:15.780Z,8.70
2023-01-25T10:57:01.156Z,7.63
2023-01-25T10:58:01.147Z,8.40
2023-01-25T10:59:14.697Z,9.30
2023-01-25T11:00:06.038Z,9.83
2023-01-25T11:01:02.286Z,10.53
2023-01-25T11:02:20.485Z,6.07
2023-01-25T11:03:01.241Z,7.07
2023-01-25T11:04:02.740Z,8.87
2023-01-25T11:05:20.489Z,8.53
2023-01-25T11:06:01.174Z,8.73
2023-01-25T11:07:03.294Z,8.30
2023-01-25T11:08:20.510Z,5.00
2023-01-25T11:09:11.243Z,5.27
2023-01-25T11:10:01.712Z,6.47
2023-01-25T11:11:20.484Z,8.37
2023-01-25T11:12:03.391Z,6.40
2023-01-25T11:13:19.203Z,12.07
2023-01-25T11:14:12.051Z,19.13
2023-01-25T11:15:20.492Z,28.00
2023-01-25T11:16:19.736Z,29.73
2023-01-25T11:17:04.327Z,29.00
2023-01-25T11:18:06.509Z,35.37
2023-01-25T11:19:03.406Z,40.03
2023-01-25T11:20:14.375Z,41.93
2023-01-25T11:21:05.010Z,39.50
2023-01-25T11:22:04.378Z,32.07
2023-01-25T11:23:01.439Z,33.87
2023-01-25T11:24:04.140Z,29.97
2023-01-25T11:25:20.491Z,14.97
2023-01-25T11:26:12.417Z,12.80
2023-01-25T11:27:12.089Z,10.60
2023-01-25T11:28:15.566Z,9.37
2023-01-25T11:29:12.516Z,8.43
2023-01-25T11:30:10.069Z,7.87
2023-01-25T11:31:01.243Z,8.73
2023-01-25T11:32:01.438Z,8.37
2023-01-25T11:33:01.447Z,9.07
2023-01-25T11:34:01.523Z,10.23
2023-01-25T11:35:01.735Z,12.90
2023-01-25T11:36:17.203Z,11.03
2023-01-25T11:37:20.506Z,11.10
2023-01-25T11:38:07.957Z,9.40
2023-01-25T11:39:12.289Z,10.10
2023-01-25T11:40:13.840Z,12.17
2023-01-25T11:41:15.057Z,9.73
2023-01-25T11:42:14.735Z,10.40
2023-01-25T11:43:11.955Z,10.90
2023-01-25T11:44:19.576Z,10.30
2023-01-25T11:45:18.907Z,10.80
2023-01-25T11:46:11.581Z,9.73
2023-01-25T11:47:14.738Z,12.03
2023-01-25T11:48:17.203Z,9.10
2023-01-25T11:49:12.699Z,8.00
2023-01-25T11:50:10.862Z,8.70
2023-01-25T11:51:05.639Z,8.37
2023-01-25T11:52:14.905Z,10.00
2023-01-25T11:53:20.504Z,10.50
2023-01-25T11:54:20.473Z,9.87
2023-01-25T11:55:13.543Z,9.00
2023-01-25T11:56:12.717Z,9.50
2023-01-25T11:57:14.985Z,7.30
2023-01-25T11:58:15.860Z,10.23
2023-01-25T11:59:14.260Z,6.03
2023-01-25T12:00:14.719Z,8.60
2023-01-25T12:01:12.401Z,10.07
2023-01-25T12:02:18.341Z,8.40
2023-01-25T12:03:20.500Z,6.93
2023-01-25T12:04:20.487Z,9.10
2023-01-25T12:05:21.858Z,8.50
2023-01-25T12:06:12.143Z,7.80
2023-01-25T12:07:04.066Z,7.83
2023-01-25T12:08:19.123Z,7.27
2023-01-25T12:09:15.020Z,8.40
2023-01-25T12:10:18.592Z,8.40
2023-01-25T12:11:08.682Z,8.43
2023-01-25T12:12:13.228Z,7.93
2023-01-25T12:13:09.877Z,9.27
2023-01-25T12:14:08.937Z,8.83
2023-01-25T12:15:17.200Z,8.20
2023-01-25T12:16:10.986Z,9.00
2023-01-25T12:17:17.713Z,8.80
2023-01-25T12:18:19.728Z,8.30
2023-01-25T12:19:18.150Z,7.50
2023-01-25T12:20:20.478Z,8.30
2023-01-25T12:21:09.427Z,8.97
2023-01-25T12:22:16.671Z,10.00
2023-01-25T12:23:19.726Z,9.23
2023-01-25T12:24:19.002Z,7.20
2023-01-25T12:25:16.000Z,10.17
2023-01-25T12:26:12.021Z,11.37
2023-01-25T12:27:15.766Z,10.50
2023-01-25T12:28:11.199Z,9.57
2023-01-25T12:29:15.194Z,11.57
2023-01-25T12:30:12.890Z,8.97
2023-01-25T12:31:09.717Z,8.70
2023-01-25T12:32:08.955Z,9.87
2023-01-25T12:33:14.261Z,9.37
2023-01-25T12:34:07.215Z,9.07
2023-01-25T12:35:20.489Z,9.30
2023-01-25T12:36:10.776Z,10.47
2023-01-25T12:37:07.190Z,10.07
2023-01-25T12:38:09.491Z,9.63
2023-01-25T12:39:03.765Z,8.70
2023-01-25T12:40:09.195Z,8.83
2023-01-25T12:41:07.449Z,8.73
2023-01-25T12:42:06.855Z,9.13
2023-01-25T12:43:01.643Z,7.77
2023-01-25T12:44:07.387Z,8.37
2023-01-25T12:45:11.212Z,8.10
2023-01-25T12:46:08.961Z,8.67
2023-01-25T12:47:10.393Z,6.60
2023-01-25T12:48:12.067Z,7.80
2023-01-25T12:49:06.630Z,10.00
2023-01-25T12:50:12.799Z,7.93
2023-01-25T12:51:01.327Z,8.20
2023-01-25T12:52:06.964Z,9.27
2023-01-25T12:53:09.910Z,6.70
2023-01-25T12:54:11.316Z,8.23
2023-01-25T12:55:03.736Z,9.63
2023-01-25T12:56:03.982Z,10.50
2023-01-25T12:57:13.348Z,9.53
2023-01-25T12:58:11.720Z,9.90
2023-01-25T12:59:11.656Z,10.50
2023-01-25T13:00:15.624Z,9.27
2023-01-25T13:01:11.260Z,14.03
2023-01-25T13:02:17.346Z,10.80
2023-01-25T13:03:08.744Z,26.63
2023-01-25T13:04:19.470Z,31.20
2023-01-25T13:05:13.229Z,12.17
2023-01-25T13:06:14.379Z,12.00
2023-01-25T13:07:12.115Z,9.63
2023-01-25T13:08:23.214Z,10.60
2023-01-25T13:09:07.518Z,10.37
2023-01-25T13:10:13.190Z,9.27
2023-01-25T13:11:15.128Z,9.77
2023-01-25T13:12:03.387Z,10.33
2023-01-25T13:13:11.857Z,10.10
2023-01-25T13:14:18.672Z,9.80
2023-01-25T13:15:01.092Z,9.10